sensor_id;sensor_type;location;lat;lon;timestamp;P1;durP1;ratioP1;P2;durP2;ratioP2
50563;SDS011;36514;52.590;21.448;2023-05-14T05:45:43;1664.72;;;914.72;;
50563;SDS011;36514;52.590;21.448;2023-05-14T05:55:44;1249.13;;;873.43;;
50563;SDS011;36514;52.590;21.448;2023-05-14T06:05:42;715.61;;;656.58;;
50563;SDS011;36514;52.590;21.448;2023-05-14T06:15:41;651.93;;;608.29;;
50563;SDS011;36514;52.590;21.448;2023-05-14T06:25:40;613.92;;;574.37;;
50563;SDS011;36514;52.590;21.448;2023-05-14T06:35:39;624.95;;;583.48;;
50563;SDS011;36514;52.590;21.448;2023-05-14T06:45:38;624.39;;;581.87;;
50563;SDS011;36514;52.590;21.448;2023-05-14T06:55:36;633.33;;;591.04;;
50563;SDS011;36514;52.590;21.448;2023-05-14T07:05:44;518.17;;;484.18;;
50563;SDS011;36514;52.590;21.448;2023-05-14T07:16:00;467.92;;;439.18;;
50563;SDS011;36514;52.590;21.448;2023-05-14T07:26:09;430.61;;;404.93;;
50563;SDS011;36514;52.590;21.448;2023-05-14T07:36:14;504.61;;;472.47;;
50563;SDS011;36514;52.590;21.448;2023-05-14T07:46:16;596.37;;;556.65;;
50563;SDS011;36514;52.590;21.448;2023-05-14T07:56:18;592.10;;;553.17;;
50563;SDS011;36514;52.590;21.448;2023-05-14T08:06:16;781.44;;;716.38;;
50563;SDS011;36514;52.590;21.448;2023-05-14T08:16:31;591.48;;;553.25;;
50563;SDS011;36514;52.590;21.448;2023-05-14T08:26:32;564.90;;;529.29;;
50563;SDS011;36514;52.590;21.448;2023-05-14T08:36:32;601.74;;;563.06;;
50563;SDS011;36514;52.590;21.448;2023-05-14T08:46:31;668.82;;;621.82;;
50563;SDS011;36514;52.590;21.448;2023-05-14T08:56:33;795.25;;;723.12;;
50563;SDS011;36514;52.590;21.448;2023-05-14T09:06:34;752.71;;;689.60;;
50563;SDS011;36514;52.590;21.448;2023-05-14T09:16:35;710.22;;;657.57;;
50563;SDS011;36514;52.590;21.448;2023-05-14T09:26:35;644.45;;;597.56;;
50563;SDS011;36514;52.590;21.448;2023-05-14T09:36:39;600.06;;;556.52;;
50563;SDS011;36514;52.590;21.448;2023-05-14T09:46:43;559.98;;;522.90;;
50563;SDS011;36514;52.590;21.448;2023-05-14T09:56:44;582.93;;;543.62;;
50563;SDS011;36514;52.590;21.448;2023-05-14T10:06:43;561.65;;;524.65;;
50563;SDS011;36514;52.590;21.448;2023-05-14T10:16:46;568.37;;;531.48;;
50563;SDS011;36514;52.590;21.448;2023-05-14T10:26:45;750.09;;;685.57;;
50563;SDS011;36514;52.590;21.448;2023-05-14T10:36:45;600.18;;;559.06;;
50563;SDS011;36514;52.590;21.448;2023-05-14T10:46:48;572.56;;;533.36;;
50563;SDS011;36514;52.590;21.448;2023-05-14T10:56:46;574.36;;;536.31;;
50563;SDS011;36514;52.590;21.448;2023-05-14T11:06:42;552.37;;;516.04;;
50563;SDS011;36514;52.590;21.448;2023-05-14T11:16:41;602.28;;;561.35;;
50563;SDS011;36514;52.590;21.448;2023-05-14T11:26:34;585.04;;;543.19;;
50563;SDS011;36514;52.590;21.448;2023-05-14T11:36:05;1041.96;;;826.41;;
50563;SDS011;36514;52.590;21.448;2023-05-14T11:45:39;670.25;;;623.45;;
50563;SDS011;36514;52.590;21.448;2023-05-14T11:56:08;715.45;;;660.70;;
50563;SDS011;36514;52.590;21.448;2023-05-14T12:06:17;631.48;;;583.48;;
50563;SDS011;36514;52.590;21.448;2023-05-14T12:16:19;679.28;;;626.51;;
50563;SDS011;36514;52.590;21.448;2023-05-14T12:26:19;725.73;;;666.70;;
50563;SDS011;36514;52.590;21.448;2023-05-14T12:36:18;612.56;;;570.72;;
50563;SDS011;36514;52.590;21.448;2023-05-14T12:46:20;651.45;;;604.43;;
50563;SDS011;36514;52.590;21.448;2023-05-14T12:56:19;733.01;;;677.29;;
50563;SDS011;36514;52.590;21.448;2023-05-14T13:06:21;623.47;;;579.02;;
50563;SDS011;36514;52.590;21.448;2023-05-14T13:16:06;635.66;;;591.60;;
50563;SDS011;36514;52.590;21.448;2023-05-14T13:26:10;630.42;;;586.04;;
50563;SDS011;36514;52.590;21.448;2023-05-14T13:36:01;624.48;;;581.61;;
50563;SDS011;36514;52.590;21.448;2023-05-14T13:45:52;691.01;;;642.01;;
50563;SDS011;36514;52.590;21.448;2023-05-14T13:55:57;917.31;;;817.42;;
50563;SDS011;36514;52.590;21.448;2023-05-14T14:05:55;639.37;;;595.71;;
50563;SDS011;36514;52.590;21.448;2023-05-14T14:15:43;706.67;;;655.38;;
50563;SDS011;36514;52.590;21.448;2023-05-14T14:25:37;653.24;;;607.08;;
50563;SDS011;36514;52.590;21.448;2023-05-14T14:35:48;666.02;;;620.18;;
50563;SDS011;36514;52.590;21.448;2023-05-14T14:45:49;780.74;;;705.05;;
50563;SDS011;36514;52.590;21.448;2023-05-14T14:55:45;643.03;;;598.73;;
50563;SDS011;36514;52.590;21.448;2023-05-14T15:05:27;648.06;;;602.31;;
50563;SDS011;36514;52.590;21.448;2023-05-14T15:15:14;658.33;;;614.39;;
50563;SDS011;36514;52.590;21.448;2023-05-14T15:25:20;664.51;;;619.75;;
50563;SDS011;36514;52.590;21.448;2023-05-14T15:35:21;642.07;;;595.76;;
50563;SDS011;36514;52.590;21.448;2023-05-14T15:45:19;722.67;;;668.21;;
50563;SDS011;36514;52.590;21.448;2023-05-14T15:55:15;645.41;;;601.62;;
50563;SDS011;36514;52.590;21.448;2023-05-14T16:05:10;671.20;;;623.25;;
50563;SDS011;36514;52.590;21.448;2023-05-14T16:15:05;658.53;;;613.98;;
50563;SDS011;36514;52.590;21.448;2023-05-14T16:25:01;693.64;;;646.61;;
50563;SDS011;36514;52.590;21.448;2023-05-14T16:34:56;762.02;;;704.61;;
50563;SDS011;36514;52.590;21.448;2023-05-14T16:44:53;637.17;;;593.33;;
50563;SDS011;36514;52.590;21.448;2023-05-14T16:54:47;777.07;;;715.97;;
50563;SDS011;36514;52.590;21.448;2023-05-14T17:04:41;713.01;;;662.94;;
50563;SDS011;36514;52.590;21.448;2023-05-14T17:14:36;676.43;;;630.08;;
50563;SDS011;36514;52.590;21.448;2023-05-14T17:24:32;673.44;;;626.51;;
50563;SDS011;36514;52.590;21.448;2023-05-14T17:34:28;686.15;;;636.43;;
50563;SDS011;36514;52.590;21.448;2023-05-14T17:44:24;800.58;;;731.14;;
50563;SDS011;36514;52.590;21.448;2023-05-14T17:54:22;873.74;;;788.14;;
50563;SDS011;36514;52.590;21.448;2023-05-14T18:04:18;1192.70;;;863.63;;
50563;SDS011;36514;52.590;21.448;2023-05-14T18:14:14;1495.70;;;899.16;;
50563;SDS011;36514;52.590;21.448;2023-05-14T18:24:11;1602.56;;;903.76;;
50563;SDS011;36514;52.590;21.448;2023-05-14T18:34:07;1107.79;;;647.31;;
50563;SDS011;36514;52.590;21.448;2023-05-14T18:44:04;740.37;;;474.03;;
50563;SDS011;36514;52.590;21.448;2023-05-14T18:54:01;220.57;;;173.12;;
50563;SDS011;36514;52.590;21.448;2023-05-14T19:03:58;203.32;;;149.18;;
50563;SDS011;36514;52.590;21.448;2023-05-14T19:13:55;107.02;;;80.81;;
50563;SDS011;36514;52.590;21.448;2023-05-14T19:23:53;187.80;;;128.35;;
50563;SDS011;36514;52.590;21.448;2023-05-14T19:33:50;210.40;;;149.77;;
50563;SDS011;36514;52.590;21.448;2023-05-14T19:43:49;174.16;;;115.65;;
50563;SDS011;36514;52.590;21.448;2023-05-14T19:53:48;159.06;;;97.54;;
50563;SDS011;36514;52.590;21.448;2023-05-14T20:03:45;180.81;;;130.41;;
50563;SDS011;36514;52.590;21.448;2023-05-14T20:13:42;97.16;;;67.60;;
50563;SDS011;36514;52.590;21.448;2023-05-14T20:23:39;110.24;;;65.99;;
50563;SDS011;36514;52.590;21.448;2023-05-14T20:33:36;135.88;;;77.96;;
50563;SDS011;36514;52.590;21.448;2023-05-14T20:43:32;79.69;;;50.79;;
50563;SDS011;36514;52.590;21.448;2023-05-14T20:53:29;76.92;;;42.90;;
50563;SDS011;36514;52.590;21.448;2023-05-14T21:03:42;114.78;;;66.88;;
50563;SDS011;36514;52.590;21.448;2023-05-14T21:13:52;82.65;;;47.65;;
50563;SDS011;36514;52.590;21.448;2023-05-14T21:23:49;91.83;;;73.90;;
50563;SDS011;36514;52.590;21.448;2023-05-14T21:33:45;79.12;;;58.25;;
50563;SDS011;36514;52.590;21.448;2023-05-14T21:43:43;117.87;;;53.45;;
50563;SDS011;36514;52.590;21.448;2023-05-14T21:53:40;113.69;;;65.48;;
50563;SDS011;36514;52.590;21.448;2023-05-14T22:03:39;73.05;;;46.36;;
50563;SDS011;36514;52.590;21.448;2023-05-14T22:13:37;94.18;;;60.35;;
50563;SDS011;36514;52.590;21.448;2023-05-14T22:23:34;104.79;;;77.21;;
50563;SDS011;36514;52.590;21.448;2023-05-14T22:33:31;87.66;;;57.38;;
50563;SDS011;36514;52.590;21.448;2023-05-14T22:43:28;90.85;;;66.71;;
50563;SDS011;36514;52.590;21.448;2023-05-14T22:53:24;86.03;;;55.85;;
50563;SDS011;36514;52.590;21.448;2023-05-14T23:03:21;79.06;;;46.37;;
50563;SDS011;36514;52.590;21.448;2023-05-14T23:13:19;80.33;;;44.94;;
50563;SDS011;36514;52.590;21.448;2023-05-14T23:23:16;61.96;;;37.92;;
50563;SDS011;36514;52.590;21.448;2023-05-14T23:33:15;88.87;;;61.64;;
50563;SDS011;36514;52.590;21.448;2023-05-14T23:43:12;66.29;;;43.26;;
50563;SDS011;36514;52.590;21.448;2023-05-14T23:53:09;107.68;;;74.15;;
